createdAt,value
2023-03-29T00:00:02.346Z,55.70
2023-03-29T00:02:39.066Z,55.80
2023-03-29T00:05:07.407Z,55.90
2023-03-29T00:07:34.569Z,56.00
2023-03-29T00:10:04.581Z,56.20
2023-03-29T00:12:31.984Z,56.30
2023-03-29T00:14:58.938Z,56.40
2023-03-29T00:17:26.245Z,56.70
2023-03-29T00:19:53.628Z,57.00
2023-03-29T00:22:21.352Z,57.10
2023-03-29T00:24:49.138Z,57.40
2023-03-29T00:27:16.711Z,57.60
2023-03-29T00:29:43.788Z,57.80
2023-03-29T00:32:11.410Z,57.90
2023-03-29T00:34:38.347Z,58.10
2023-03-29T00:37:08.579Z,58.30
2023-03-29T00:39:36.954Z,58.30
2023-03-29T00:42:04.068Z,58.60
2023-03-29T00:45:14.078Z,58.60
2023-03-29T00:47:46.338Z,59.00
2023-03-29T00:50:37.911Z,58.80
2023-03-29T00:53:13.516Z,59.20
2023-03-29T00:56:02.433Z,59.20
2023-03-29T00:58:39.293Z,59.40
2023-03-29T01:01:19.315Z,59.40
2023-03-29T01:03:57.427Z,59.50
2023-03-29T01:06:29.408Z,59.50
2023-03-29T01:09:01.343Z,59.50
2023-03-29T01:11:45.796Z,59.60
2023-03-29T01:14:26.653Z,59.80
2023-03-29T01:16:54.280Z,59.60
2023-03-29T01:19:28.586Z,59.70
2023-03-29T01:22:16.772Z,59.90
2023-03-29T01:25:14.604Z,60.70
2023-03-29T01:27:50.021Z,60.10
2023-03-29T01:30:33.552Z,59.90
2023-03-29T01:33:08.448Z,60.10
2023-03-29T01:36:03.521Z,60.00
2023-03-29T01:38:34.488Z,60.10
2023-03-29T01:41:03.616Z,60.00
2023-03-29T01:43:42.121Z,60.20
2023-03-29T01:46:55.946Z,60.40
2023-03-29T01:49:43.367Z,60.70
2023-03-29T01:52:20.767Z,60.60
2023-03-29T01:54:58.334Z,60.50
2023-03-29T01:57:26.331Z,60.60
2023-03-29T01:59:56.031Z,60.60
2023-03-29T02:02:27.367Z,60.80
2023-03-29T02:04:57.373Z,61.00
2023-03-29T02:07:30.485Z,61.00
2023-03-29T02:09:59.113Z,61.20
2023-03-29T02:12:26.087Z,61.20
2023-03-29T02:14:54.343Z,61.30
2023-03-29T02:17:25.133Z,61.30
2023-03-29T02:20:17.627Z,61.60
2023-03-29T02:23:15.959Z,62.00
2023-03-29T02:25:45.690Z,61.80
2023-03-29T02:28:13.519Z,61.60
2023-03-29T02:31:06.338Z,61.80
2023-03-29T02:34:11.613Z,62.10
2023-03-29T02:36:50.442Z,62.20
2023-03-29T02:39:18.546Z,62.10
2023-03-29T02:41:49.624Z,62.10
2023-03-29T02:44:32.392Z,62.20
2023-03-29T02:47:06.600Z,62.50
2023-03-29T02:49:34.193Z,62.40
2023-03-29T02:52:11.049Z,62.50
2023-03-29T02:54:43.414Z,62.60
2023-03-29T02:57:10.775Z,62.70
2023-03-29T02:59:43.871Z,62.60
2023-03-29T03:02:11.806Z,62.70
2023-03-29T03:04:38.982Z,62.80
2023-03-29T03:07:06.063Z,62.90
2023-03-29T03:09:33.684Z,63.10
2023-03-29T03:12:01.050Z,63.40
2023-03-29T03:14:28.160Z,63.60
2023-03-29T03:16:57.764Z,63.60
2023-03-29T03:19:24.860Z,63.80
2023-03-29T03:21:52.036Z,64.00
2023-03-29T03:24:19.139Z,64.20
2023-03-29T03:26:46.473Z,64.30
2023-03-29T03:29:15.734Z,64.40
2023-03-29T03:32:12.290Z,64.70
2023-03-29T03:34:58.853Z,64.90
2023-03-29T03:37:27.968Z,65.00
2023-03-29T03:39:55.603Z,65.20
2023-03-29T03:42:23.698Z,65.50
2023-03-29T03:44:50.658Z,65.70
2023-03-29T03:47:40.978Z,66.00
2023-03-29T03:50:52.937Z,66.30
2023-03-29T03:53:21.653Z,66.60
2023-03-29T03:56:15.235Z,66.70
2023-03-29T03:59:01.012Z,67.00
2023-03-29T04:01:30.744Z,67.20
2023-03-29T04:04:14.354Z,67.40
2023-03-29T04:06:51.228Z,68.30
2023-03-29T04:09:38.909Z,67.60
2023-03-29T04:12:29.188Z,67.70
2023-03-29T04:14:56.129Z,67.90
2023-03-29T04:17:24.997Z,68.00
2023-03-29T04:19:58.689Z,68.20
2023-03-29T04:22:28.307Z,68.20
2023-03-29T04:24:55.614Z,68.30
2023-03-29T04:27:50.450Z,68.40
2023-03-29T04:30:37.722Z,68.40
2023-03-29T04:33:33.881Z,68.30
2023-03-29T04:36:01.708Z,68.20
2023-03-29T04:38:30.805Z,68.30
2023-03-29T04:41:01.055Z,68.20
2023-03-29T04:43:48.195Z,68.30
2023-03-29T04:46:26.988Z,68.90
2023-03-29T04:49:12.832Z,68.10
2023-03-29T04:51:43.396Z,67.90
2023-03-29T04:54:12.418Z,68.10
2023-03-29T04:57:23.514Z,67.90
2023-03-29T05:00:26.887Z,67.90
2023-03-29T05:03:14.510Z,67.60
2023-03-29T05:06:03.060Z,67.50
2023-03-29T05:08:30.379Z,67.40
2023-03-29T05:11:11.957Z,67.50
2023-03-29T05:13:39.220Z,67.40
2023-03-29T05:16:07.846Z,67.20
2023-03-29T05:18:35.658Z,67.40
2023-03-29T05:21:04.471Z,67.50
2023-03-29T05:23:34.245Z,67.50
2023-03-29T05:26:30.521Z,67.30
2023-03-29T05:28:58.015Z,67.10
2023-03-29T05:31:26.396Z,66.90
2023-03-29T05:33:55.111Z,67.60
2023-03-29T05:36:23.408Z,66.80
2023-03-29T05:38:51.064Z,66.80
2023-03-29T05:41:20.678Z,66.70
2023-03-29T05:44:26.605Z,66.60
2023-03-29T05:46:59.685Z,66.50
2023-03-29T05:49:27.015Z,66.20
2023-03-29T05:52:08.585Z,66.10
2023-03-29T05:54:37.396Z,65.90
2023-03-29T05:57:06.192Z,65.80
2023-03-29T05:59:33.814Z,65.60
2023-03-29T06:02:03.329Z,65.50
2023-03-29T06:04:31.834Z,65.40
2023-03-29T06:07:18.327Z,65.20
2023-03-29T06:10:00.836Z,65.10
2023-03-29T06:12:28.284Z,64.40
2023-03-29T06:15:04.702Z,64.30
2023-03-29T06:17:47.148Z,64.70
2023-03-29T06:20:15.414Z,63.90
2023-03-29T06:22:48.083Z,63.80
2023-03-29T06:25:15.524Z,63.70
2023-03-29T06:27:46.824Z,63.40
2023-03-29T06:30:16.905Z,63.40
2023-03-29T06:32:50.540Z,63.30
2023-03-29T06:35:38.042Z,63.10
2023-03-29T06:38:09.327Z,62.70
2023-03-29T06:41:05.843Z,62.40
2023-03-29T06:43:51.062Z,62.10
2023-03-29T06:46:19.062Z,61.80
2023-03-29T06:48:56.983Z,61.60
2023-03-29T06:51:29.812Z,61.30
2023-03-29T06:53:56.924Z,61.10
2023-03-29T06:56:23.957Z,60.70
2023-03-29T06:58:59.895Z,60.20
2023-03-29T07:01:34.611Z,59.90
2023-03-29T07:04:17.743Z,59.60
2023-03-29T07:07:06.088Z,59.40
2023-03-29T07:09:35.823Z,59.00
2023-03-29T07:12:26.462Z,58.80
2023-03-29T07:14:58.509Z,58.50
2023-03-29T07:17:37.966Z,58.10
2023-03-29T07:20:10.633Z,57.80
2023-03-29T07:22:48.497Z,57.50
2023-03-29T07:25:17.124Z,57.40
2023-03-29T07:27:45.022Z,57.10
2023-03-29T07:30:16.852Z,57.30
2023-03-29T07:32:46.458Z,56.60
2023-03-29T07:35:27.873Z,56.40
2023-03-29T07:37:56.061Z,56.20
2023-03-29T07:40:24.470Z,56.00
2023-03-29T07:42:58.777Z,55.80
2023-03-29T07:45:30.837Z,55.60
2023-03-29T07:48:05.526Z,55.40
2023-03-29T07:50:47.031Z,55.10
2023-03-29T07:53:15.874Z,54.80
2023-03-29T07:55:47.542Z,54.60
2023-03-29T07:58:35.241Z,54.30
2023-03-29T08:01:02.709Z,54.10
2023-03-29T08:03:53.265Z,53.90
2023-03-29T08:06:26.515Z,53.90
2023-03-29T08:08:54.125Z,53.80
2023-03-29T08:11:21.205Z,53.70
2023-03-29T08:14:01.460Z,53.40
2023-03-29T08:16:52.519Z,52.80
2023-03-29T08:19:20.815Z,52.30
2023-03-29T08:22:04.590Z,52.00
2023-03-29T08:25:07.290Z,51.80
2023-03-29T08:27:39.735Z,51.20
2023-03-29T08:30:10.241Z,50.60
2023-03-29T08:32:39.306Z,49.90
2023-03-29T08:35:09.644Z,49.10
2023-03-29T08:38:02.666Z,48.60
2023-03-29T08:40:30.627Z,48.70
2023-03-29T08:43:18.927Z,48.20
2023-03-29T08:46:35.440Z,48.00
2023-03-29T08:49:40.133Z,48.00
2023-03-29T08:52:36.708Z,48.00
2023-03-29T08:55:40.500Z,48.00
2023-03-29T08:58:44.168Z,47.60
2023-03-29T09:01:11.706Z,47.40
2023-03-29T09:04:21.711Z,47.10
2023-03-29T09:07:11.490Z,46.00
2023-03-29T09:09:43.662Z,45.30
2023-03-29T09:12:48.811Z,45.00
2023-03-29T09:15:24.129Z,44.40
2023-03-29T09:18:30.563Z,44.00
2023-03-29T09:21:09.551Z,42.50
2023-03-29T09:24:07.637Z,41.90
2023-03-29T09:26:57.121Z,40.60
2023-03-29T09:29:53.220Z,40.20
2023-03-29T09:32:33.058Z,39.80
2023-03-29T09:35:18.860Z,39.60
2023-03-29T09:37:50.056Z,39.20
2023-03-29T09:40:42.851Z,39.00
2023-03-29T09:43:28.691Z,39.00
2023-03-29T09:46:01.070Z,39.70
2023-03-29T09:48:32.173Z,39.90
2023-03-29T09:51:02.060Z,39.90
2023-03-29T09:53:29.289Z,40.00
2023-03-29T09:56:04.577Z,40.70
2023-03-29T09:58:46.423Z,41.00
2023-03-29T10:01:17.493Z,40.70
2023-03-29T10:03:52.321Z,40.40
2023-03-29T10:06:23.816Z,40.30
2023-03-29T10:08:58.401Z,39.90
2023-03-29T10:11:41.560Z,38.80
2023-03-29T10:14:20.633Z,38.30
2023-03-29T10:16:56.890Z,37.90
2023-03-29T10:19:35.808Z,37.90
2023-03-29T10:22:08.179Z,37.30
2023-03-29T10:24:35.174Z,36.80
2023-03-29T10:27:07.818Z,35.70
2023-03-29T10:29:42.406Z,34.70
2023-03-29T10:32:28.530Z,34.60
2023-03-29T10:35:00.012Z,34.80
2023-03-29T10:37:29.068Z,34.30
2023-03-29T10:39:56.145Z,34.50
2023-03-29T10:42:25.274Z,34.70
2023-03-29T10:44:58.447Z,33.70
2023-03-29T10:47:34.204Z,32.00
2023-03-29T10:50:01.796Z,31.60
2023-03-29T10:52:30.466Z,31.10
2023-03-29T10:54:59.247Z,31.00
2023-03-29T10:58:12.211Z,31.40
2023-03-29T11:00:56.933Z,32.30
2023-03-29T11:03:53.932Z,33.00
2023-03-29T11:06:37.069Z,33.30
2023-03-29T11:09:48.244Z,33.80
2023-03-29T11:12:38.830Z,34.70
2023-03-29T11:15:49.438Z,35.30
2023-03-29T11:18:45.298Z,36.20
2023-03-29T11:21:27.982Z,36.60
2023-03-29T11:24:51.928Z,37.10
2023-03-29T11:27:41.029Z,37.50
2023-03-29T11:30:42.347Z,38.10
2023-03-29T11:33:25.778Z,38.60
2023-03-29T11:36:05.091Z,39.10
2023-03-29T11:39:09.500Z,39.70
2023-03-29T11:41:42.487Z,40.30
2023-03-29T11:44:30.984Z,40.60
2023-03-29T11:47:09.999Z,41.00
2023-03-29T11:50:04.720Z,41.50
2023-03-29T11:52:42.876Z,41.70
2023-03-29T11:55:20.147Z,41.90
2023-03-29T11:57:53.997Z,41.90
2023-03-29T12:00:38.601Z,41.90
2023-03-29T12:03:20.989Z,41.90
2023-03-29T12:06:18.806Z,41.80
2023-03-29T12:09:01.351Z,41.70
2023-03-29T12:12:00.145Z,41.80
2023-03-29T12:15:03.617Z,41.70
2023-03-29T12:17:42.388Z,41.70
2023-03-29T12:20:28.157Z,41.70
2023-03-29T12:22:58.404Z,41.60
2023-03-29T12:25:40.902Z,41.50
2023-03-29T12:28:49.776Z,41.10
2023-03-29T12:31:32.788Z,40.70
2023-03-29T12:34:26.034Z,40.30
2023-03-29T12:37:21.952Z,39.70
2023-03-29T12:40:15.501Z,39.10
2023-03-29T12:43:32.829Z,38.70
2023-03-29T12:46:26.041Z,38.90
2023-03-29T12:48:58.336Z,39.20
2023-03-29T12:51:33.562Z,39.40
2023-03-29T12:54:25.033Z,39.60
2023-03-29T12:56:54.508Z,39.60
2023-03-29T12:59:38.001Z,39.60
2023-03-29T13:02:14.152Z,39.80
2023-03-29T13:04:44.248Z,40.10
2023-03-29T13:07:27.921Z,40.20
2023-03-29T13:10:02.315Z,40.20
2023-03-29T13:12:33.659Z,40.30
2023-03-29T13:15:05.406Z,40.70
2023-03-29T13:18:01.134Z,41.10
2023-03-29T13:20:46.764Z,41.00
2023-03-29T13:23:51.566Z,41.20
2023-03-29T13:26:37.556Z,41.00
2023-03-29T13:29:30.068Z,41.10
2023-03-29T13:32:39.317Z,41.20
2023-03-29T13:35:21.091Z,41.50
2023-03-29T13:38:35.879Z,41.40
2023-03-29T13:41:04.896Z,41.50
2023-03-29T13:43:46.238Z,41.50
2023-03-29T13:46:41.360Z,41.30
2023-03-29T13:49:29.120Z,41.30
2023-03-29T13:52:41.828Z,41.60
2023-03-29T13:55:26.917Z,41.90
2023-03-29T13:58:07.570Z,42.00
2023-03-29T14:00:46.213Z,42.30
2023-03-29T14:03:16.283Z,42.40
2023-03-29T14:05:50.637Z,42.60
2023-03-29T14:08:33.988Z,42.50
2023-03-29T14:11:09.199Z,43.50
2023-03-29T14:13:37.234Z,44.10
2023-03-29T14:16:08.676Z,43.90
2023-03-29T14:18:40.498Z,44.10
2023-03-29T14:21:08.553Z,44.10
2023-03-29T14:23:38.245Z,44.80
2023-03-29T14:26:15.293Z,44.30
2023-03-29T14:28:56.771Z,44.50
2023-03-29T14:31:29.756Z,44.70
2023-03-29T14:34:00.054Z,44.60
2023-03-29T14:36:29.708Z,44.70
2023-03-29T14:39:03.567Z,44.90
2023-03-29T14:41:36.652Z,44.90
2023-03-29T14:44:06.692Z,45.00
2023-03-29T14:46:35.070Z,45.00
2023-03-29T14:49:02.388Z,45.20
2023-03-29T14:51:31.061Z,45.30
2023-03-29T14:54:01.035Z,45.40
2023-03-29T14:56:29.313Z,45.60
2023-03-29T14:58:57.576Z,45.70
2023-03-29T15:01:27.037Z,46.00
2023-03-29T15:04:01.913Z,46.20
2023-03-29T15:06:30.915Z,46.30
2023-03-29T15:09:06.201Z,46.70
2023-03-29T15:11:35.135Z,46.80
2023-03-29T15:14:09.178Z,47.00
2023-03-29T15:16:42.682Z,47.20
2023-03-29T15:19:18.885Z,47.30
2023-03-29T15:21:49.852Z,47.40
2023-03-29T15:24:32.546Z,47.40
2023-03-29T15:27:13.692Z,47.60
2023-03-29T15:29:43.275Z,47.70
2023-03-29T15:32:24.207Z,47.70
2023-03-29T15:35:09.151Z,47.90
2023-03-29T15:37:36.807Z,48.00
2023-03-29T15:40:09.603Z,48.20
2023-03-29T15:42:36.838Z,48.50
2023-03-29T15:45:06.594Z,48.90
2023-03-29T15:47:36.323Z,49.10
2023-03-29T15:50:03.519Z,49.40
2023-03-29T15:52:31.824Z,49.50
2023-03-29T15:54:58.878Z,49.70
2023-03-29T15:57:26.066Z,49.80
2023-03-29T15:59:53.037Z,49.80
2023-03-29T16:02:24.322Z,50.00
2023-03-29T16:07:42.817Z,50.00
2023-03-29T16:10:10.190Z,49.80
2023-03-29T16:12:38.409Z,49.90
2023-03-29T16:15:18.703Z,49.80
2023-03-29T16:17:45.734Z,49.90
2023-03-29T16:20:19.838Z,49.80
2023-03-29T16:22:48.935Z,49.80
2023-03-29T16:25:23.597Z,49.90
2023-03-29T16:27:52.809Z,50.00
2023-03-29T16:30:20.084Z,50.00
2023-03-29T16:32:47.129Z,50.00
2023-03-29T16:35:25.245Z,50.10
2023-03-29T16:37:52.464Z,50.10
2023-03-29T16:40:21.116Z,50.20
2023-03-29T16:42:48.547Z,50.20
2023-03-29T16:45:16.259Z,50.40
2023-03-29T16:47:44.359Z,50.40
2023-03-29T16:50:14.065Z,50.50
2023-03-29T16:52:42.170Z,50.60
2023-03-29T16:55:12.206Z,50.60
2023-03-29T16:57:40.098Z,50.70
2023-03-29T17:00:15.986Z,50.70
2023-03-29T17:02:43.669Z,51.00
2023-03-29T17:05:12.412Z,50.90
2023-03-29T17:07:39.915Z,51.00
2023-03-29T17:10:09.255Z,51.10
2023-03-29T17:12:36.936Z,51.30
2023-03-29T17:15:06.418Z,51.30
2023-03-29T17:17:34.679Z,51.40
2023-03-29T17:20:01.659Z,51.50
2023-03-29T17:22:28.616Z,51.60
2023-03-29T17:24:55.671Z,51.80
2023-03-29T17:27:22.566Z,52.40
2023-03-29T17:29:49.817Z,52.10
2023-03-29T17:32:16.958Z,52.00
2023-03-29T17:34:44.030Z,52.10
2023-03-29T17:37:13.156Z,52.20
2023-03-29T17:39:41.942Z,52.20
2023-03-29T17:42:09.074Z,52.50
2023-03-29T17:44:36.005Z,52.50
2023-03-29T17:47:03.054Z,52.70
2023-03-29T17:49:30.067Z,52.80
2023-03-29T17:51:57.130Z,52.80
2023-03-29T17:54:24.156Z,53.00
2023-03-29T17:56:51.249Z,53.10
2023-03-29T17:59:18.788Z,53.20
2023-03-29T18:01:45.917Z,53.40
2023-03-29T18:04:12.813Z,53.50
2023-03-29T18:06:39.724Z,53.50
2023-03-29T18:09:06.710Z,53.80
2023-03-29T18:11:33.896Z,53.80
2023-03-29T18:14:01.679Z,53.80
2023-03-29T18:16:28.951Z,54.00
2023-03-29T18:18:56.423Z,54.00
2023-03-29T18:21:25.995Z,54.10
2023-03-29T18:23:56.253Z,54.30
2023-03-29T18:26:24.150Z,54.30
2023-03-29T18:28:51.582Z,54.50
2023-03-29T18:31:19.834Z,54.50
2023-03-29T18:33:47.985Z,54.70
2023-03-29T18:36:15.377Z,54.80
2023-03-29T18:38:43.606Z,54.90
2023-03-29T18:41:13.681Z,55.00
2023-03-29T18:43:42.914Z,55.10
2023-03-29T18:46:10.012Z,55.20
2023-03-29T18:48:38.799Z,55.10
2023-03-29T18:51:11.207Z,55.20
2023-03-29T18:53:41.456Z,55.40
2023-03-29T18:56:08.661Z,55.60
2023-03-29T18:58:36.318Z,55.60
2023-03-29T19:01:05.983Z,55.70
2023-03-29T19:03:34.740Z,55.80
2023-03-29T19:06:03.225Z,55.80
2023-03-29T19:08:30.420Z,55.80
2023-03-29T19:11:05.844Z,55.90
2023-03-29T19:13:33.073Z,56.10
2023-03-29T19:16:06.397Z,56.00
2023-03-29T19:18:34.178Z,56.60
2023-03-29T19:21:01.564Z,56.30
2023-03-29T19:23:28.838Z,56.30
2023-03-29T19:25:59.076Z,56.30
2023-03-29T19:28:27.470Z,56.50
2023-03-29T19:30:56.344Z,56.60
2023-03-29T19:33:23.734Z,56.70
2023-03-29T19:35:51.846Z,56.90
2023-03-29T19:38:20.561Z,56.80
2023-03-29T19:40:50.583Z,56.90
2023-03-29T19:43:20.940Z,57.00
2023-03-29T19:45:50.286Z,57.10
2023-03-29T19:48:23.677Z,57.00
2023-03-29T19:50:51.369Z,57.10
2023-03-29T19:53:18.344Z,57.30
2023-03-29T19:55:45.952Z,57.20
2023-03-29T19:58:13.038Z,57.20
2023-03-29T20:00:42.011Z,57.40
2023-03-29T20:03:10.112Z,57.50
2023-03-29T20:05:39.611Z,57.50
2023-03-29T20:08:07.773Z,57.60
2023-03-29T20:10:36.310Z,57.60
2023-03-29T20:13:05.654Z,57.70
2023-03-29T20:15:32.777Z,57.70
2023-03-29T20:18:00.377Z,57.80
2023-03-29T20:20:28.478Z,57.90
2023-03-29T20:23:04.513Z,58.10
2023-03-29T20:25:35.561Z,58.20
2023-03-29T20:28:03.902Z,58.20
2023-03-29T20:30:30.992Z,58.30
2023-03-29T20:32:57.983Z,58.30
2023-03-29T20:35:25.355Z,58.30
2023-03-29T20:37:53.149Z,58.40
2023-03-29T20:40:20.846Z,58.50
2023-03-29T20:42:48.982Z,58.60
2023-03-29T20:45:19.474Z,58.60
2023-03-29T20:47:57.662Z,58.60
2023-03-29T20:50:26.358Z,58.60
2023-03-29T20:52:54.682Z,58.60
2023-03-29T20:55:23.473Z,58.60
2023-03-29T20:57:54.212Z,58.70
2023-03-29T21:00:22.348Z,58.70
2023-03-29T21:02:49.370Z,58.60
2023-03-29T21:05:16.429Z,58.70
2023-03-29T21:07:44.782Z,58.80
2023-03-29T21:10:12.420Z,58.90
2023-03-29T21:12:41.018Z,58.90
2023-03-29T21:15:10.598Z,59.00
2023-03-29T21:17:38.072Z,59.10
2023-03-29T21:20:11.186Z,59.10
2023-03-29T21:22:39.205Z,59.20
2023-03-29T21:25:12.462Z,59.20
2023-03-29T21:27:39.456Z,59.30
2023-03-29T21:30:08.082Z,59.30
2023-03-29T21:32:35.704Z,59.30
2023-03-29T21:35:02.783Z,59.50
2023-03-29T21:37:29.695Z,59.50
2023-03-29T21:39:56.560Z,59.50
2023-03-29T21:42:23.805Z,59.60
2023-03-29T21:44:51.167Z,59.50
2023-03-29T21:47:18.060Z,59.60
2023-03-29T21:49:45.373Z,59.60
2023-03-29T21:52:12.434Z,59.70
2023-03-29T21:54:39.475Z,59.70
2023-03-29T21:57:06.531Z,59.80
2023-03-29T21:59:33.617Z,59.80
2023-03-29T22:02:01.131Z,59.80
2023-03-29T22:04:36.558Z,59.90
2023-03-29T22:07:05.969Z,59.90
2023-03-29T22:09:34.876Z,60.00
2023-03-29T22:12:03.275Z,60.00
2023-03-29T22:14:35.120Z,60.10
2023-03-29T22:17:07.430Z,60.30
2023-03-29T22:19:39.550Z,60.20
2023-03-29T22:22:13.515Z,60.40
2023-03-29T22:24:42.035Z,60.40
2023-03-29T22:27:10.635Z,60.50
2023-03-29T22:29:37.753Z,60.50
2023-03-29T22:32:05.819Z,60.70
2023-03-29T22:34:33.195Z,60.60
2023-03-29T22:37:00.275Z,60.90
2023-03-29T22:39:27.363Z,60.90
2023-03-29T22:41:54.413Z,61.00
2023-03-29T22:44:21.364Z,61.10
2023-03-29T22:46:48.449Z,61.30
2023-03-29T22:49:15.303Z,61.50
2023-03-29T22:51:42.380Z,61.70
2023-03-29T22:54:09.343Z,61.80
2023-03-29T22:56:36.429Z,61.90
2023-03-29T22:59:03.482Z,62.10
2023-03-29T23:01:30.655Z,62.00
2023-03-29T23:03:57.796Z,62.20
2023-03-29T23:06:24.787Z,62.40
2023-03-29T23:08:51.834Z,62.50
2023-03-29T23:11:18.926Z,62.70
2023-03-29T23:13:48.923Z,62.80
2023-03-29T23:16:16.365Z,62.90
2023-03-29T23:18:43.501Z,63.00
2023-03-29T23:21:10.620Z,62.90
2023-03-29T23:23:38.396Z,63.20
2023-03-29T23:26:08.965Z,63.30
2023-03-29T23:28:36.078Z,63.30
2023-03-29T23:31:12.554Z,63.40
2023-03-29T23:33:41.396Z,63.70
2023-03-29T23:36:15.424Z,63.70
2023-03-29T23:38:45.962Z,63.40
2023-03-29T23:41:17.639Z,63.70
2023-03-29T23:43:46.871Z,63.80
2023-03-29T23:46:16.899Z,63.90
2023-03-29T23:48:51.962Z,64.20
2023-03-29T23:51:22.930Z,64.30
2023-03-29T23:53:50.699Z,64.40
2023-03-29T23:56:17.585Z,64.50
2023-03-29T23:58:44.779Z,64.60
